Mooresburg, Tennessee
Current Conditions -  °F | °C
As of 7:35 PM on Saturday 20 Dec 2014 (Local Time) from KMOR Reporting Station
Broken Clouds Broken Clouds  
Wind Chill: 39°   Ceiling: 3500
Heat Index: 39°   Visibility: 10mi
Dew Point: 37°   Wind: 0mph
Humidity: 93%   Direction: NA
Pressure: 30.23"   Gusts: NA
Location:  36.35°N, 83.23°W
Report Text: KMOR 210035Z AUTO 00000KT 10SM BKN035 04/03 A3023 RMK
Loading
Personal Weather Stations






























Interactive Weather Map New forecast layout! Learn more

10-Day Weather Forecast

Advertisements
Track Severe Weather on mobile